createdAt,value
2023-01-12T00:01:55.102Z,21.46
2023-01-12T00:04:23.301Z,21.46
2023-01-12T00:06:51.445Z,21.44
2023-01-12T00:09:19.867Z,21.43
2023-01-12T00:11:47.909Z,21.43
2023-01-12T00:14:16.070Z,21.43
2023-01-12T00:16:44.181Z,21.41
2023-01-12T00:19:15.604Z,21.41
2023-01-12T00:21:56.337Z,21.40
2023-01-12T00:24:25.700Z,21.40
2023-01-12T00:26:53.830Z,21.39
2023-01-12T00:29:22.065Z,21.38
2023-01-12T00:31:50.235Z,21.37
2023-01-12T00:34:19.771Z,21.37
2023-01-12T00:36:47.924Z,21.36
2023-01-12T00:39:16.085Z,21.35
2023-01-12T00:42:01.602Z,21.35
2023-01-12T00:44:46.923Z,21.34
2023-01-12T00:47:15.527Z,21.33
2023-01-12T00:49:45.254Z,21.32
2023-01-12T00:52:24.918Z,21.32
2023-01-12T00:54:57.896Z,21.32
2023-01-12T00:57:26.021Z,21.31
2023-01-12T00:59:55.517Z,21.29
2023-01-12T01:02:23.966Z,21.29
2023-01-12T01:04:53.468Z,21.29
2023-01-12T01:07:22.048Z,21.28
2023-01-12T01:09:50.244Z,21.28
2023-01-12T01:12:18.373Z,21.26
2023-01-12T01:14:47.403Z,21.27
2023-01-12T01:17:15.576Z,21.26
2023-01-12T01:19:44.058Z,21.25
2023-01-12T01:22:13.583Z,21.24
2023-01-12T01:24:42.195Z,21.23
2023-01-12T01:27:10.332Z,21.24
2023-01-12T01:29:38.356Z,21.23
2023-01-12T01:32:06.656Z,21.23
2023-01-12T01:34:34.991Z,21.22
2023-01-12T01:37:03.135Z,21.20
2023-01-12T01:39:32.556Z,21.21
2023-01-12T01:42:01.219Z,21.20
2023-01-12T01:44:51.359Z,21.23
2023-01-12T01:47:24.893Z,21.23
2023-01-12T01:49:53.917Z,21.22
2023-01-12T01:52:23.843Z,21.21
2023-01-12T01:54:54.761Z,21.17
2023-01-12T01:57:23.118Z,21.17
2023-01-12T01:59:52.824Z,21.17
2023-01-12T02:02:21.070Z,21.16
2023-01-12T02:04:49.123Z,21.16
2023-01-12T02:07:17.265Z,21.16
2023-01-12T02:09:45.291Z,21.15
2023-01-12T02:12:32.344Z,21.14
2023-01-12T02:15:17.959Z,21.14
2023-01-12T02:17:53.195Z,21.13
2023-01-12T02:20:49.440Z,21.13
2023-01-12T02:23:56.094Z,21.13
2023-01-12T02:26:36.923Z,21.12
2023-01-12T02:29:36.644Z,21.11
2023-01-12T02:32:07.731Z,21.11
2023-01-12T02:34:38.297Z,21.11
2023-01-12T02:37:10.578Z,21.11
2023-01-12T02:39:43.145Z,21.11
2023-01-12T02:42:30.932Z,21.10
2023-01-12T02:45:01.770Z,21.08
2023-01-12T02:47:35.264Z,21.08
2023-01-12T02:50:04.113Z,21.08
2023-01-12T02:52:32.676Z,21.08
2023-01-12T02:55:01.070Z,21.06
2023-01-12T02:57:29.063Z,21.06
2023-01-12T02:59:57.256Z,21.06
2023-01-12T03:02:25.582Z,21.06
2023-01-12T03:04:55.271Z,21.05
2023-01-12T03:07:31.170Z,21.04
2023-01-12T03:10:00.833Z,21.04
2023-01-12T03:12:31.763Z,21.04
2023-01-12T03:15:00.499Z,21.03
2023-01-12T03:17:31.130Z,21.03
2023-01-12T03:20:02.590Z,21.03
2023-01-12T03:22:30.707Z,21.02
2023-01-12T03:25:02.272Z,21.01
2023-01-12T03:27:33.258Z,21.02
2023-01-12T03:30:02.164Z,21.03
2023-01-12T03:32:30.248Z,21.01
2023-01-12T03:34:58.407Z,21.00
2023-01-12T03:37:29.793Z,21.00
2023-01-12T03:39:59.836Z,21.00
2023-01-12T03:42:29.314Z,21.00
2023-01-12T03:45:00.899Z,21.00
2023-01-12T03:47:30.501Z,21.00
2023-01-12T03:49:59.874Z,20.99
2023-01-12T03:52:29.445Z,20.98
2023-01-12T03:54:58.277Z,20.99
2023-01-12T03:57:27.254Z,20.97
2023-01-12T03:59:55.352Z,20.97
2023-01-12T04:02:23.439Z,20.97
2023-01-12T04:04:51.681Z,20.97
2023-01-12T04:07:19.776Z,20.96
2023-01-12T04:09:49.308Z,20.95
2023-01-12T04:12:17.460Z,20.96
2023-01-12T04:14:48.161Z,20.95
2023-01-12T04:17:19.263Z,20.95
2023-01-12T04:19:47.359Z,20.95
2023-01-12T04:22:33.584Z,20.94
2023-01-12T04:25:03.084Z,20.94
2023-01-12T04:27:31.227Z,20.93
2023-01-12T04:29:59.309Z,20.92
2023-01-12T04:32:27.536Z,20.92
2023-01-12T04:34:55.650Z,20.92
2023-01-12T04:37:23.748Z,20.92
2023-01-12T04:39:51.859Z,20.92
2023-01-12T04:42:38.696Z,20.90
2023-01-12T04:45:07.855Z,20.90
2023-01-12T04:47:35.958Z,20.90
2023-01-12T04:50:04.344Z,20.90
2023-01-12T04:52:32.425Z,20.90
2023-01-12T04:55:00.501Z,20.90
2023-01-12T04:57:30.040Z,20.90
2023-01-12T04:59:58.178Z,20.89
2023-01-12T05:02:26.361Z,20.90
2023-01-12T05:04:54.414Z,20.89
2023-01-12T05:07:22.539Z,20.88
2023-01-12T05:10:07.951Z,20.88
2023-01-12T05:12:37.449Z,20.89
2023-01-12T05:15:06.471Z,20.88
2023-01-12T05:17:34.523Z,20.89
2023-01-12T05:20:02.624Z,20.88
2023-01-12T05:22:32.226Z,20.87
2023-01-12T05:25:00.355Z,20.88
2023-01-12T05:27:28.443Z,20.88
2023-01-12T05:29:59.729Z,20.88
2023-01-12T05:32:27.839Z,20.88
2023-01-12T05:34:55.902Z,20.89
2023-01-12T05:37:24.013Z,20.86
2023-01-12T05:39:52.067Z,20.89
2023-01-12T05:42:37.711Z,20.89
2023-01-12T05:45:08.702Z,20.89
2023-01-12T05:47:36.862Z,20.89
2023-01-12T05:50:05.508Z,20.90
2023-01-12T05:52:33.586Z,20.90
2023-01-12T05:55:01.741Z,20.91
2023-01-12T05:57:30.490Z,20.92
2023-01-12T05:59:58.578Z,20.91
2023-01-12T06:02:28.798Z,20.91
2023-01-12T06:04:57.016Z,20.91
2023-01-12T06:07:25.047Z,20.91
2023-01-12T06:09:53.187Z,20.92
2023-01-12T06:12:38.364Z,20.92
2023-01-12T06:15:07.494Z,20.92
2023-01-12T06:17:36.985Z,20.92
2023-01-12T06:20:06.026Z,20.94
2023-01-12T06:22:34.134Z,20.95
2023-01-12T06:25:02.336Z,20.94
2023-01-12T06:27:35.401Z,20.95
2023-01-12T06:30:03.570Z,20.94
2023-01-12T06:32:33.459Z,20.96
2023-01-12T06:35:14.069Z,21.00
2023-01-12T06:37:46.356Z,21.03
2023-01-12T06:40:15.000Z,21.04
2023-01-12T06:42:43.144Z,21.07
2023-01-12T06:45:12.420Z,21.08
2023-01-12T06:47:46.962Z,21.10
2023-01-12T06:50:16.709Z,21.11
2023-01-12T06:52:44.795Z,21.11
2023-01-12T06:55:12.933Z,21.12
2023-01-12T06:57:41.022Z,21.13
2023-01-12T07:00:13.464Z,21.13
2023-01-12T07:02:41.561Z,21.16
2023-01-12T07:07:40.475Z,21.21
2023-01-12T07:10:09.605Z,21.24
2023-01-12T07:12:37.699Z,21.27
2023-01-12T07:15:06.317Z,21.28
2023-01-12T07:17:34.395Z,21.29
2023-01-12T07:20:02.567Z,21.30
2023-01-12T07:22:30.698Z,21.32
2023-01-12T07:25:00.198Z,21.32
2023-01-12T07:27:28.344Z,21.35
2023-01-12T07:29:56.449Z,21.37
2023-01-12T07:32:27.028Z,21.38
2023-01-12T07:34:55.210Z,21.39
2023-01-12T07:37:23.406Z,21.40
2023-01-12T07:39:51.479Z,21.40
2023-01-12T07:42:27.113Z,21.42
2023-01-12T07:44:55.209Z,21.43
2023-01-12T07:47:23.367Z,21.45
2023-01-12T07:49:51.534Z,21.47
2023-01-12T07:52:19.611Z,21.48
2023-01-12T07:54:47.736Z,21.51
2023-01-12T07:57:15.848Z,21.54
2023-01-12T07:59:45.288Z,21.54
2023-01-12T08:02:16.532Z,21.56
2023-01-12T08:04:44.827Z,21.55
2023-01-12T08:07:12.978Z,21.57
2023-01-12T08:09:41.121Z,21.56
2023-01-12T08:12:09.242Z,21.57
2023-01-12T08:14:38.505Z,21.57
2023-01-12T08:17:09.606Z,21.59
2023-01-12T08:19:39.388Z,21.59
2023-01-12T08:22:09.449Z,21.60
2023-01-12T08:24:38.503Z,21.62
2023-01-12T08:27:06.638Z,21.63
2023-01-12T08:29:36.273Z,21.64
2023-01-12T08:32:05.479Z,21.64
2023-01-12T08:34:35.117Z,21.66
2023-01-12T08:37:05.184Z,21.66
2023-01-12T08:39:35.247Z,21.68
2023-01-12T08:42:03.485Z,21.68
2023-01-12T08:44:34.173Z,21.69
2023-01-12T08:47:02.332Z,21.69
2023-01-12T08:49:30.919Z,21.70
2023-01-12T08:52:00.399Z,21.71
2023-01-12T08:54:28.693Z,21.72
2023-01-12T08:56:56.744Z,21.72
2023-01-12T08:59:25.607Z,21.73
2023-01-12T09:01:53.801Z,21.74
2023-01-12T09:04:21.969Z,21.74
2023-01-12T09:06:50.024Z,21.75
2023-01-12T09:09:20.206Z,21.75
2023-01-12T09:11:48.992Z,21.76
2023-01-12T09:14:17.347Z,21.76
2023-01-12T09:16:45.556Z,21.78
2023-01-12T09:19:13.963Z,21.82
2023-01-12T09:21:42.174Z,21.86
2023-01-12T09:24:10.567Z,21.86
2023-01-12T09:26:40.900Z,21.89
2023-01-12T09:29:09.584Z,21.90
2023-01-12T09:31:38.191Z,21.90
2023-01-12T09:34:06.258Z,21.91
2023-01-12T09:36:35.176Z,21.91
2023-01-12T09:39:04.348Z,21.92
2023-01-12T09:41:50.881Z,21.92
2023-01-12T09:44:54.545Z,21.94
2023-01-12T09:47:27.168Z,21.95
2023-01-12T09:50:04.622Z,21.96
2023-01-12T09:52:38.390Z,21.97
2023-01-12T09:55:07.852Z,21.96
2023-01-12T09:57:50.167Z,21.97
2023-01-12T10:00:20.157Z,21.97
2023-01-12T10:02:49.729Z,21.97
2023-01-12T10:05:31.554Z,21.98
2023-01-12T10:08:07.183Z,21.98
2023-01-12T10:10:35.260Z,21.99
2023-01-12T10:13:05.921Z,22.01
2023-01-12T10:15:41.591Z,22.02
2023-01-12T10:18:11.619Z,22.04
2023-01-12T10:20:40.527Z,22.04
2023-01-12T10:23:15.060Z,22.05
2023-01-12T10:25:45.117Z,22.05
2023-01-12T10:28:18.832Z,22.06
2023-01-12T10:30:48.359Z,22.05
2023-01-12T10:33:17.916Z,22.07
2023-01-12T10:35:57.062Z,22.08
2023-01-12T10:38:27.708Z,22.09
2023-01-12T10:41:07.440Z,22.11
2023-01-12T10:43:35.680Z,22.13
2023-01-12T10:46:07.182Z,22.13
2023-01-12T10:48:35.335Z,22.14
2023-01-12T10:51:04.245Z,22.16
2023-01-12T10:53:37.427Z,22.16
2023-01-12T10:56:18.127Z,22.18
2023-01-12T10:58:46.847Z,22.17
2023-01-12T11:01:16.631Z,22.19
2023-01-12T11:03:44.812Z,22.21
2023-01-12T11:06:33.066Z,22.22
2023-01-12T11:09:07.585Z,22.23
2023-01-12T11:11:35.683Z,22.24
2023-01-12T11:14:04.547Z,22.24
2023-01-12T11:16:34.644Z,22.26
2023-01-12T11:19:21.328Z,22.28
2023-01-12T11:21:51.595Z,22.28
2023-01-12T11:24:30.959Z,22.29
2023-01-12T11:27:00.871Z,22.28
2023-01-12T11:29:36.243Z,22.26
2023-01-12T11:32:08.456Z,22.26
2023-01-12T11:34:39.131Z,22.25
2023-01-12T11:37:09.827Z,22.25
2023-01-12T11:39:38.008Z,22.24
2023-01-12T11:42:23.671Z,22.24
2023-01-12T11:44:53.103Z,22.25
2023-01-12T11:47:25.110Z,22.24
2023-01-12T11:49:55.046Z,22.24
2023-01-12T11:52:23.100Z,22.24
2023-01-12T11:54:51.274Z,22.24
2023-01-12T11:57:42.560Z,22.23
2023-01-12T12:00:19.573Z,22.23
2023-01-12T12:02:53.383Z,22.23
2023-01-12T12:05:26.883Z,22.23
2023-01-12T12:08:01.188Z,22.23
2023-01-12T12:10:31.479Z,22.23
2023-01-12T12:13:14.381Z,22.23
2023-01-12T12:15:46.817Z,22.22
2023-01-12T12:18:20.374Z,22.22
2023-01-12T12:20:52.534Z,22.22
2023-01-12T12:23:25.184Z,22.22
2023-01-12T12:25:57.610Z,22.21
2023-01-12T12:28:52.648Z,22.21
2023-01-12T12:31:32.541Z,22.22
2023-01-12T12:34:10.551Z,22.20
2023-01-12T12:36:41.935Z,22.21
2023-01-12T12:39:37.517Z,22.21
2023-01-12T12:42:29.976Z,22.20
2023-01-12T12:45:18.651Z,22.21
2023-01-12T12:47:59.124Z,22.20
2023-01-12T12:50:30.542Z,22.20
2023-01-12T12:53:22.103Z,22.20
2023-01-12T12:55:51.009Z,22.21
2023-01-12T12:58:30.330Z,22.19
2023-01-12T13:01:16.374Z,22.19
2023-01-12T13:03:48.049Z,22.18
2023-01-12T13:06:20.348Z,22.19
2023-01-12T13:08:49.476Z,22.18
2023-01-12T13:11:17.577Z,22.18
2023-01-12T13:13:59.129Z,22.19
2023-01-12T13:16:48.279Z,22.20
2023-01-12T13:19:31.771Z,22.20
2023-01-12T13:22:03.714Z,22.18
2023-01-12T13:24:42.249Z,22.18
2023-01-12T13:27:56.655Z,22.18
2023-01-12T13:30:40.502Z,22.17
2023-01-12T13:33:33.488Z,22.17
2023-01-12T13:36:10.170Z,22.15
2023-01-12T13:38:50.522Z,22.15
2023-01-12T13:41:41.450Z,22.16
2023-01-12T13:44:11.405Z,22.16
2023-01-12T13:46:42.681Z,22.15
2023-01-12T13:49:28.905Z,22.15
2023-01-12T13:52:08.800Z,22.16
2023-01-12T13:54:48.538Z,22.15
2023-01-12T13:57:19.875Z,22.15
2023-01-12T13:59:58.106Z,22.15
2023-01-12T14:02:26.293Z,22.12
2023-01-12T14:05:21.485Z,22.13
2023-01-12T14:07:54.285Z,22.13
2023-01-12T14:10:33.316Z,22.13
2023-01-12T14:13:23.704Z,22.14
2023-01-12T14:16:09.156Z,22.13
2023-01-12T14:18:44.219Z,22.12
2023-01-12T14:21:22.213Z,22.12
2023-01-12T14:23:50.386Z,22.11
2023-01-12T14:26:23.791Z,22.12
2023-01-12T14:28:52.614Z,22.11
2023-01-12T14:31:26.919Z,22.11
2023-01-12T14:33:56.135Z,22.11
2023-01-12T14:36:26.052Z,22.12
2023-01-12T14:38:54.509Z,22.11
2023-01-12T14:41:43.165Z,22.12
2023-01-12T14:44:38.560Z,22.11
2023-01-12T14:47:07.732Z,22.11
2023-01-12T14:49:36.489Z,22.11
2023-01-12T14:52:05.330Z,22.07
2023-01-12T14:54:34.146Z,22.05
2023-01-12T14:57:04.657Z,22.06
2023-01-12T14:59:33.919Z,22.05
2023-01-12T15:02:28.751Z,22.07
2023-01-12T15:04:58.967Z,22.07
2023-01-12T15:07:30.577Z,22.07
2023-01-12T15:09:59.482Z,22.07
2023-01-12T15:12:53.113Z,22.07
2023-01-12T15:15:22.896Z,22.06
2023-01-12T15:18:08.892Z,22.06
2023-01-12T15:20:55.212Z,22.07
2023-01-12T15:23:46.872Z,22.06
2023-01-12T15:26:15.027Z,22.06
2023-01-12T15:28:44.854Z,22.06
2023-01-12T15:31:18.929Z,22.07
2023-01-12T15:33:47.134Z,22.05
2023-01-12T15:36:15.251Z,22.06
2023-01-12T15:38:43.783Z,22.04
2023-01-12T15:41:15.752Z,22.04
2023-01-12T15:43:46.098Z,22.05
2023-01-12T15:46:18.539Z,22.03
2023-01-12T15:48:47.948Z,22.02
2023-01-12T15:51:16.313Z,22.02
2023-01-12T15:53:44.373Z,22.04
2023-01-12T15:56:15.360Z,22.02
2023-01-12T15:58:43.544Z,22.04
2023-01-12T16:01:16.381Z,22.04
2023-01-12T16:04:09.492Z,22.04
2023-01-12T16:06:33.991Z,22.05
2023-01-12T16:09:02.223Z,22.05
2023-01-12T16:11:30.318Z,22.06
2023-01-12T16:13:58.666Z,22.06
2023-01-12T16:16:29.226Z,22.05
2023-01-12T16:18:58.656Z,22.05
2023-01-12T16:21:27.823Z,22.06
2023-01-12T16:23:57.916Z,22.06
2023-01-12T16:26:26.242Z,22.05
2023-01-12T16:28:54.410Z,22.05
2023-01-12T16:31:22.625Z,22.06
2023-01-12T16:33:52.230Z,22.06
2023-01-12T16:36:20.353Z,22.05
2023-01-12T16:38:48.502Z,22.05
2023-01-12T16:41:18.934Z,22.06
2023-01-12T16:43:47.226Z,22.06
2023-01-12T16:46:15.430Z,22.05
2023-01-12T16:48:43.695Z,22.06
2023-01-12T16:51:14.232Z,22.06
2023-01-12T16:53:42.571Z,22.06
2023-01-12T16:56:11.557Z,22.06
2023-01-12T16:58:41.902Z,22.08
2023-01-12T17:01:12.342Z,22.07
2023-01-12T17:03:41.604Z,22.08
2023-01-12T17:06:10.899Z,22.09
2023-01-12T17:08:40.858Z,22.09
2023-01-12T17:11:12.276Z,22.09
2023-01-12T17:13:40.465Z,22.10
2023-01-12T17:16:08.751Z,22.10
2023-01-12T17:18:37.532Z,22.11
2023-01-12T17:21:07.438Z,22.12
2023-01-12T17:23:35.672Z,22.13
2023-01-12T17:26:05.546Z,22.14
2023-01-12T17:28:35.045Z,22.15
2023-01-12T17:31:08.134Z,22.15
2023-01-12T17:33:36.635Z,22.16
2023-01-12T17:36:05.503Z,22.18
2023-01-12T17:38:33.920Z,22.19
2023-01-12T17:41:02.068Z,22.21
2023-01-12T17:43:30.598Z,22.21
2023-01-12T17:46:00.267Z,22.22
2023-01-12T17:48:28.676Z,22.23
2023-01-12T17:50:56.745Z,22.24
2023-01-12T17:53:24.885Z,22.24
2023-01-12T17:55:53.417Z,22.23
2023-01-12T17:58:21.587Z,22.24
2023-01-12T18:00:51.239Z,22.25
2023-01-12T18:03:19.600Z,22.24
2023-01-12T18:05:57.737Z,22.25
2023-01-12T18:08:30.840Z,22.26
2023-01-12T18:10:58.930Z,22.26
2023-01-12T18:13:27.078Z,22.28
2023-01-12T18:15:56.570Z,22.28
2023-01-12T18:18:25.931Z,22.27
2023-01-12T18:20:54.048Z,22.28
2023-01-12T18:23:22.457Z,22.27
2023-01-12T18:25:50.628Z,22.27
2023-01-12T18:28:18.696Z,22.28
2023-01-12T18:30:46.894Z,22.28
2023-01-12T18:33:16.422Z,22.28
2023-01-12T18:35:44.518Z,22.29
2023-01-12T18:38:12.678Z,22.28
2023-01-12T18:40:41.916Z,22.29
2023-01-12T18:43:09.075Z,22.29
2023-01-12T18:45:37.183Z,22.30
2023-01-12T18:48:24.306Z,22.29
2023-01-12T18:51:12.600Z,22.31
2023-01-12T18:53:41.918Z,22.31
2023-01-12T18:56:11.869Z,22.32
2023-01-12T18:58:42.064Z,22.32
2023-01-12T19:01:10.486Z,22.33
2023-01-12T19:03:38.614Z,22.33
2023-01-12T19:06:22.541Z,22.33
2023-01-12T19:09:08.216Z,22.33
2023-01-12T19:11:36.363Z,22.33
2023-01-12T19:14:21.763Z,22.32
2023-01-12T19:17:07.340Z,22.34
2023-01-12T19:19:35.563Z,22.34
2023-01-12T19:22:22.538Z,22.34
2023-01-12T19:25:07.810Z,22.32
2023-01-12T19:27:53.075Z,22.33
2023-01-12T19:30:21.479Z,22.33
2023-01-12T19:32:49.758Z,22.32
2023-01-12T19:35:18.023Z,22.32
2023-01-12T19:37:49.032Z,22.32
2023-01-12T19:40:23.428Z,22.32
2023-01-12T19:43:08.772Z,22.32
2023-01-12T19:45:38.460Z,22.32
2023-01-12T19:48:07.452Z,22.32
2023-01-12T19:50:35.824Z,22.34
2023-01-12T19:53:05.530Z,22.34
2023-01-12T19:55:34.015Z,22.35
2023-01-12T19:58:02.165Z,22.34
2023-01-12T20:00:30.470Z,22.34
2023-01-12T20:02:58.703Z,22.34
2023-01-12T20:05:26.768Z,22.34
2023-01-12T20:07:55.177Z,22.34
2023-01-12T20:10:24.617Z,22.35
2023-01-12T20:12:52.815Z,22.35
2023-01-12T20:15:21.748Z,22.34
2023-01-12T20:17:50.119Z,22.33
2023-01-12T20:20:18.583Z,22.34
2023-01-12T20:22:46.918Z,22.34
2023-01-12T20:25:15.113Z,22.34
2023-01-12T20:27:45.825Z,22.34
2023-01-12T20:30:18.182Z,22.35
2023-01-12T20:32:48.612Z,22.34
2023-01-12T20:35:18.072Z,22.34
2023-01-12T20:37:46.195Z,22.34
2023-01-12T20:40:14.555Z,22.35
2023-01-12T20:42:43.995Z,22.35
2023-01-12T20:45:13.586Z,22.34
2023-01-12T20:47:42.156Z,22.34
2023-01-12T20:50:13.653Z,22.34
2023-01-12T20:52:41.927Z,22.35
2023-01-12T20:55:10.065Z,22.35
2023-01-12T20:57:38.776Z,22.34
2023-01-12T21:00:09.749Z,22.35
2023-01-12T21:02:38.028Z,22.35
2023-01-12T21:05:06.584Z,22.35
2023-01-12T21:07:34.768Z,22.36
2023-01-12T21:10:02.888Z,22.36
2023-01-12T21:12:31.059Z,22.36
2023-01-12T21:14:59.118Z,22.37
2023-01-12T21:17:28.664Z,22.37
2023-01-12T21:19:56.783Z,22.37
2023-01-12T21:22:24.985Z,22.37
2023-01-12T21:24:53.040Z,22.38
2023-01-12T21:27:21.213Z,22.37
2023-01-12T21:29:49.347Z,22.37
2023-01-12T21:32:17.523Z,22.35
2023-01-12T21:34:49.001Z,22.36
2023-01-12T21:37:17.146Z,22.37
2023-01-12T21:39:45.200Z,22.38
2023-01-12T21:42:30.774Z,22.38
2023-01-12T21:44:58.982Z,22.37
2023-01-12T21:47:27.103Z,22.37
2023-01-12T21:49:57.259Z,22.36
2023-01-12T21:52:30.691Z,22.36
2023-01-12T21:54:58.842Z,22.35
2023-01-12T21:57:27.071Z,22.34
2023-01-12T21:59:55.163Z,22.33
2023-01-12T22:02:23.352Z,22.32
2023-01-12T22:04:51.407Z,22.33
2023-01-12T22:07:20.905Z,22.32
2023-01-12T22:09:49.109Z,22.32
2023-01-12T22:12:17.233Z,22.31
2023-01-12T22:14:45.359Z,22.32
2023-01-12T22:17:13.480Z,22.31
2023-01-12T22:19:41.622Z,22.32
2023-01-12T22:22:09.709Z,22.31
2023-01-12T22:24:39.295Z,22.32
2023-01-12T22:27:07.438Z,22.31
2023-01-12T22:29:35.626Z,22.31
2023-01-12T22:32:03.834Z,22.32
2023-01-12T22:34:32.019Z,22.30
2023-01-12T22:37:00.173Z,22.31
2023-01-12T22:39:28.270Z,22.30
2023-01-12T22:41:57.871Z,22.30
2023-01-12T22:44:26.105Z,22.29
2023-01-12T22:46:54.253Z,22.28
2023-01-12T22:49:22.468Z,22.29
2023-01-12T22:51:50.549Z,22.29
2023-01-12T22:54:19.186Z,22.28
2023-01-12T22:56:47.257Z,22.28
2023-01-12T22:59:16.847Z,22.27
2023-01-12T23:01:44.946Z,22.27
2023-01-12T23:04:13.441Z,22.25
2023-01-12T23:06:41.585Z,22.26
2023-01-12T23:09:11.683Z,22.26
2023-01-12T23:11:39.807Z,22.26
2023-01-12T23:14:08.185Z,22.26
2023-01-12T23:16:37.700Z,22.26
2023-01-12T23:19:05.803Z,22.25
2023-01-12T23:21:33.925Z,22.25
2023-01-12T23:24:02.129Z,22.24
2023-01-12T23:26:31.990Z,22.22
2023-01-12T23:29:01.117Z,22.22
2023-01-12T23:31:30.448Z,22.23
2023-01-12T23:34:00.038Z,22.22
2023-01-12T23:36:29.541Z,22.23
2023-01-12T23:38:59.764Z,22.22
2023-01-12T23:41:29.235Z,22.22
2023-01-12T23:43:58.682Z,22.23
2023-01-12T23:46:27.164Z,22.22
2023-01-12T23:48:56.082Z,22.21
2023-01-12T23:51:26.397Z,22.21
2023-01-12T23:53:54.513Z,22.21
2023-01-12T23:56:23.621Z,22.20
2023-01-12T23:58:51.749Z,22.19
